Time;durP1;ratioP1;P1;durP2;ratioP2;P2;SDS_P1;SDS_P2;PMS_P1;PMS_P2;Temp;Humidity;BMP_temperature;BMP_pressure;BME280_temperature;BME280_humidity;BME280_pressure;Samples;Min_cycle;Max_cycle;Signal;HPM_P1;HPM_P2
2021/04/07 00:02:06;;;;;;;1.87;1.63;;;;;;;2.06;100.00;97664.31;5031199;28;20325;-66
2021/04/07 00:04:33;;;;;;;3.03;1.90;;;;;;;2.17;100.00;97669.28;5030521;28;20199;-66
2021/04/07 00:07:00;;;;;;;3.40;1.93;;;;;;;1.92;100.00;97671.94;5031277;28;20248;-66
2021/04/07 00:09:27;;;;;;;3.50;2.10;;;;;;;2.09;100.00;97671.06;5030257;28;20203;-66
2021/04/07 00:11:55;;;;;;;3.57;1.90;;;;;;;2.06;100.00;97671.38;5030787;28;20206;-66
2021/04/07 00:14:23;;;;;;;4.97;2.27;;;;;;;2.04;100.00;97665.44;5027207;28;20575;-66
2021/04/07 00:16:50;;;;;;;2.70;2.03;;;;;;;2.07;100.00;97673.84;5029334;28;20249;-65
2021/04/07 00:19:17;;;;;;;3.83;1.80;;;;;;;2.11;100.00;97674.34;5026009;28;20208;-66
2021/04/07 00:21:44;;;;;;;6.60;2.17;;;;;;;2.23;100.00;97673.09;5030929;28;20212;-65
2021/04/07 00:24:11;;;;;;;4.40;2.10;;;;;;;2.17;100.00;97671.09;5023834;28;20198;-66
2021/04/07 00:26:38;;;;;;;2.77;1.80;;;;;;;1.97;100.00;97680.19;5026427;28;20697;-66
2021/04/07 00:29:05;;;;;;;2.60;1.63;;;;;;;2.25;100.00;97682.47;5030946;28;20720;-65
2021/04/07 00:31:33;;;;;;;5.10;2.10;;;;;;;2.19;100.00;97684.94;5030753;28;20204;-66
2021/04/07 00:33:59;;;;;;;2.50;1.83;;;;;;;2.42;100.00;97686.84;5029608;28;20226;-66
2021/04/07 00:36:26;;;;;;;2.23;1.60;;;;;;;2.27;100.00;97687.59;5028593;28;20232;-67
2021/04/07 00:38:53;;;;;;;2.90;1.93;;;;;;;2.29;100.00;97693.53;5029734;28;20198;-66
2021/04/07 00:41:20;;;;;;;4.03;1.60;;;;;;;2.30;100.00;97692.56;5029384;28;20202;-66
2021/04/07 00:43:47;;;;;;;2.00;1.57;;;;;;;2.28;100.00;97697.13;5029810;28;20666;-66
2021/04/07 00:46:13;;;;;;;2.50;1.67;;;;;;;2.18;100.00;97699.88;5034756;28;20734;-66
2021/04/07 00:48:41;;;;;;;4.47;1.83;;;;;;;2.42;100.00;97693.91;5034533;28;20627;-67
2021/04/07 00:51:08;;;;;;;4.40;1.93;;;;;;;2.25;100.00;97708.00;5034431;28;20213;-66
2021/04/07 00:53:34;;;;;;;2.63;1.87;;;;;;;2.40;100.00;97706.41;5034224;28;20271;-65
2021/04/07 00:56:01;;;;;;;3.83;1.83;;;;;;;2.21;100.00;97704.84;5036864;28;20569;-66
2021/04/07 00:58:28;;;;;;;5.40;2.10;;;;;;;2.59;100.00;97703.56;5038785;28;20231;-65
2021/04/07 01:00:55;;;;;;;2.83;1.90;;;;;;;2.52;100.00;97705.16;5028416;28;20206;-66
2021/04/07 01:03:22;;;;;;;2.37;1.67;;;;;;;2.40;100.00;97714.31;5030928;28;20256;-66
2021/04/07 01:05:49;;;;;;;2.60;2.03;;;;;;;2.26;100.00;97710.47;5037290;28;20206;-66
2021/04/07 01:08:16;;;;;;;4.40;2.17;;;;;;;2.04;100.00;97713.63;5025471;28;20710;-66
2021/04/07 01:10:44;;;;;;;3.70;2.40;;;;;;;2.42;100.00;97710.53;5033904;28;20210;-66
2021/04/07 01:13:11;;;;;;;2.93;2.03;;;;;;;2.46;100.00;97705.78;5031976;28;20238;-66
2021/04/07 01:15:38;;;;;;;4.63;2.20;;;;;;;2.32;100.00;97711.63;5035013;28;20226;-67
2021/04/07 01:18:05;;;;;;;3.10;2.20;;;;;;;2.28;100.00;97711.13;5033738;28;20237;-66
2021/04/07 01:20:32;;;;;;;2.53;2.03;;;;;;;1.87;100.00;97719.75;5031589;28;20212;-65
2021/04/07 01:23:02;;;;;;;2.70;2.10;;;;;;;1.99;100.00;97718.53;5033827;28;20229;-66
2021/04/07 01:25:30;;;;;;;5.23;2.30;;;;;;;2.18;100.00;97722.78;5033532;28;20198;-65
2021/04/07 01:27:57;;;;;;;4.63;2.30;;;;;;;1.97;100.00;97712.59;5032148;28;20276;-67
2021/04/07 01:30:25;;;;;;;2.80;2.13;;;;;;;1.97;100.00;97722.28;5036766;28;20292;-67
2021/04/07 01:32:52;;;;;;;3.30;2.30;;;;;;;1.75;100.00;97723.63;5034267;28;20205;-67
2021/04/07 01:35:20;;;;;;;4.73;2.17;;;;;;;1.88;100.00;97718.78;5033324;28;20797;-66
2021/04/07 01:37:47;;;;;;;5.40;2.40;;;;;;;1.83;100.00;97722.88;5028741;28;20230;-67
2021/04/07 01:40:15;;;;;;;3.50;2.30;;;;;;;1.75;100.00;97721.00;5031738;28;20237;-67
2021/04/07 01:42:44;;;;;;;5.80;2.40;;;;;;;1.78;100.00;97733.03;5032925;28;20207;-66
2021/04/07 01:45:13;;;;;;;4.77;2.53;;;;;;;1.65;100.00;97728.16;5032276;28;20285;-66
2021/04/07 01:47:40;;;;;;;4.97;2.50;;;;;;;1.85;100.00;97739.31;5027977;28;20240;-66
2021/04/07 01:50:09;;;;;;;3.80;2.47;;;;;;;1.85;100.00;97740.16;5033163;28;20728;-66
2021/04/07 01:52:36;;;;;;;6.33;2.37;;;;;;;1.74;100.00;97736.94;5026760;28;20199;-66
2021/04/07 01:55:03;;;;;;;2.80;2.07;;;;;;;1.83;100.00;97738.66;5029335;28;20230;-66
2021/04/07 01:57:30;;;;;;;4.93;2.60;;;;;;;1.81;100.00;97741.44;5031831;28;20751;-66
2021/04/07 01:59:58;;;;;;;3.13;2.27;;;;;;;1.78;100.00;97738.28;5029383;28;20233;-66
2021/04/07 02:02:25;;;;;;;4.77;2.20;;;;;;;1.72;100.00;97741.50;5033204;28;20261;-66
2021/04/07 02:04:51;;;;;;;4.20;2.80;;;;;;;1.79;100.00;97738.09;5032339;28;20263;-66
2021/04/07 02:07:18;;;;;;;3.37;2.50;;;;;;;1.66;100.00;97742.94;5032483;28;20258;-66
2021/04/07 02:09:45;;;;;;;6.53;3.73;;;;;;;1.59;100.00;97743.72;5032617;28;20292;-66
2021/04/07 02:12:13;;;;;;;5.37;2.70;;;;;;;1.64;100.00;97742.25;5032969;28;20234;-66
2021/04/07 02:14:39;;;;;;;4.70;2.80;;;;;;;1.73;100.00;97743.97;5033383;28;20256;-67
2021/04/07 02:17:07;;;;;;;5.03;2.47;;;;;;;1.66;100.00;97750.84;5031264;28;20225;-66
2021/04/07 02:19:36;;;;;;;6.93;2.70;;;;;;;1.54;100.00;97749.41;5033061;28;20305;-65
2021/04/07 02:22:07;;;;;;;4.00;2.77;;;;;;;1.57;100.00;97751.75;5042621;22;20241;-69
2021/04/07 02:24:33;;;;;;;5.17;2.80;;;;;;;1.55;100.00;97748.44;5027766;28;20199;-69
2021/04/07 02:27:02;;;;;;;4.30;2.60;;;;;;;1.28;100.00;97764.28;5022317;28;20199;-69
2021/04/07 02:29:29;;;;;;;8.00;3.30;;;;;;;1.45;100.00;97763.47;5016129;28;20207;-69
2021/04/07 02:31:56;;;;;;;7.00;3.20;;;;;;;1.49;100.00;97764.00;5013359;28;20759;-69
2021/04/07 02:34:24;;;;;;;5.10;3.00;;;;;;;1.44;100.00;97769.72;5007101;28;20227;-70
2021/04/07 02:36:50;;;;;;;5.23;3.20;;;;;;;1.57;100.00;97770.16;5004477;28;20246;-69
2021/04/07 02:39:17;;;;;;;4.70;3.27;;;;;;;1.47;100.00;97769.41;5005844;28;20202;-69
2021/04/07 02:41:44;;;;;;;5.93;3.17;;;;;;;1.71;100.00;97771.41;5011775;28;20241;-69
2021/04/07 02:44:11;;;;;;;5.27;2.90;;;;;;;1.56;100.00;97778.19;5003066;28;20920;-69
2021/04/07 02:46:38;;;;;;;7.10;3.93;;;;;;;1.59;100.00;97777.91;5000587;28;20204;-69
2021/04/07 02:49:05;;;;;;;6.73;3.63;;;;;;;1.47;100.00;97785.19;5011687;28;20602;-69
2021/04/07 02:51:33;;;;;;;5.00;3.43;;;;;;;1.61;100.00;97784.66;5011795;28;20699;-69
2021/04/07 02:54:00;;;;;;;6.47;3.20;;;;;;;1.77;100.00;97784.78;5011658;28;20202;-69
2021/04/07 02:56:28;;;;;;;10.57;3.60;;;;;;;1.66;100.00;97779.78;5000987;28;20206;-69
2021/04/07 02:58:55;;;;;;;7.23;3.33;;;;;;;1.53;100.00;97791.66;5005042;28;20203;-68
2021/04/07 03:01:22;;;;;;;5.17;3.53;;;;;;;1.85;100.00;97789.28;5008113;28;20281;-69
2021/04/07 03:03:49;;;;;;;6.70;3.20;;;;;;;1.78;100.00;97791.69;5010339;28;20211;-70
2021/04/07 03:06:15;;;;;;;4.30;3.03;;;;;;;2.05;100.00;97798.66;5008316;28;20210;-69
2021/04/07 03:08:43;;;;;;;5.70;3.20;;;;;;;1.96;100.00;97803.03;5012157;28;20226;-69
2021/04/07 03:11:10;;;;;;;3.63;2.97;;;;;;;2.12;100.00;97794.44;5006352;28;20579;-70
2021/04/07 03:13:38;;;;;;;6.07;3.30;;;;;;;2.03;100.00;97803.25;5008730;28;20211;-69
2021/04/07 03:16:05;;;;;;;4.53;2.90;;;;;;;2.12;100.00;97815.47;5005378;28;20228;-69
2021/04/07 03:18:32;;;;;;;6.63;2.80;;;;;;;2.13;100.00;97811.91;5010992;28;20205;-69
2021/04/07 03:20:59;;;;;;;3.00;2.60;;;;;;;2.06;100.00;97818.72;5009430;28;20292;-69
2021/04/07 03:23:25;;;;;;;4.63;2.83;;;;;;;2.14;100.00;97821.44;5006219;28;20198;-69
2021/04/07 03:25:53;;;;;;;5.03;2.30;;;;;;;2.17;100.00;97823.75;5009752;28;20202;-70
2021/04/07 03:28:20;;;;;;;6.20;2.57;;;;;;;2.35;100.00;97828.00;5011898;28;20678;-70
2021/04/07 03:30:49;;;;;;;5.67;2.30;;;;;;;2.21;100.00;97828.56;5009280;28;20232;-70
2021/04/07 03:33:17;;;;;;;4.13;2.50;;;;;;;2.32;100.00;97827.47;5007508;28;20253;-69
2021/04/07 03:35:44;;;;;;;4.17;2.93;;;;;;;2.30;100.00;97830.25;5004859;28;20292;-69
2021/04/07 03:38:11;;;;;;;8.43;3.70;;;;;;;2.17;100.00;97839.53;5004285;28;20761;-70
2021/04/07 03:40:38;;;;;;;4.17;2.60;;;;;;;1.92;100.00;97845.56;5011413;28;20224;-70
2021/04/07 03:43:07;;;;;;;6.60;2.87;;;;;;;2.23;100.00;97849.44;5008646;28;20625;-70
2021/04/07 03:45:33;;;;;;;3.83;2.00;;;;;;;2.15;100.00;97858.13;5006443;28;20199;-70
2021/04/07 03:48:00;;;;;;;3.97;2.10;;;;;;;2.24;100.00;97859.84;5010272;28;20198;-69
2021/04/07 03:50:27;;;;;;;3.73;2.10;;;;;;;2.19;100.00;97854.19;5004827;28;20206;-69
2021/04/07 03:52:54;;;;;;;3.23;2.27;;;;;;;2.32;100.00;97859.06;5010206;28;20587;-70
2021/04/07 03:55:21;;;;;;;4.60;2.20;;;;;;;2.22;100.00;97853.91;5005412;28;20234;-70
2021/04/07 03:57:48;;;;;;;3.77;2.83;;;;;;;2.00;100.00;97858.81;5005702;28;20258;-70
2021/04/07 04:00:17;;;;;;;4.43;2.10;;;;;;;2.25;100.00;97858.84;5009649;28;20214;-70
2021/04/07 04:02:44;;;;;;;5.57;1.97;;;;;;;2.26;100.00;97857.06;5009441;28;20223;-70
2021/04/07 04:05:11;;;;;;;4.60;1.90;;;;;;;2.16;100.00;97864.22;5008075;28;20203;-69
2021/04/07 04:07:38;;;;;;;6.77;3.83;;;;;;;2.34;100.00;97863.19;5005758;28;20211;-69
2021/04/07 04:10:06;;;;;;;3.43;2.00;;;;;;;2.33;100.00;97868.63;5004745;28;20659;-69
2021/04/07 04:12:33;;;;;;;5.03;2.20;;;;;;;2.22;100.00;97869.69;5003502;28;20227;-69
2021/04/07 04:15:00;;;;;;;2.83;1.70;;;;;;;2.22;100.00;97874.13;5007618;28;20227;-69
2021/04/07 04:17:27;;;;;;;4.27;1.97;;;;;;;2.36;100.00;97870.94;5008549;28;20256;-69
2021/04/07 04:19:54;;;;;;;3.40;2.10;;;;;;;2.36;100.00;97884.13;5002140;28;20265;-69
2021/04/07 04:22:21;;;;;;;3.60;1.87;;;;;;;2.44;100.00;97886.81;5006566;28;20234;-69
2021/04/07 04:24:47;;;;;;;3.57;2.00;;;;;;;2.53;100.00;97886.72;5005585;28;20195;-69
2021/04/07 04:27:15;;;;;;;4.17;2.10;;;;;;;2.54;100.00;97892.81;5008807;28;20210;-69
2021/04/07 04:29:41;;;;;;;7.30;1.93;;;;;;;2.35;100.00;97893.00;5007762;28;20214;-69
2021/04/07 04:32:08;;;;;;;2.87;1.77;;;;;;;2.24;100.00;97898.50;4999106;28;20226;-69
2021/04/07 04:34:36;;;;;;;1.90;1.63;;;;;;;2.33;100.00;97908.09;5005968;28;20219;-70
2021/04/07 04:37:03;;;;;;;4.17;1.90;;;;;;;2.52;100.00;97910.56;5006734;28;20256;-70
2021/04/07 04:39:29;;;;;;;5.07;1.77;;;;;;;2.28;100.00;97913.84;5009293;28;20203;-69
2021/04/07 04:41:56;;;;;;;5.83;1.60;;;;;;;2.47;100.00;97926.00;5001670;28;20226;-70
2021/04/07 04:44:23;;;;;;;3.40;1.80;;;;;;;2.30;100.00;97921.59;5009022;28;20667;-69
2021/04/07 04:46:50;;;;;;;3.57;1.50;;;;;;;2.11;100.00;97935.75;5008848;28;20198;-69
2021/04/07 04:49:16;;;;;;;3.20;1.80;;;;;;;2.23;100.00;97942.41;5009716;28;20210;-69
2021/04/07 04:51:44;;;;;;;3.47;2.00;;;;;;;2.31;100.00;97941.66;5005700;28;20288;-69
2021/04/07 04:54:11;;;;;;;3.07;1.63;;;;;;;2.26;100.00;97946.56;5007401;28;20213;-70
2021/04/07 04:56:38;;;;;;;3.67;1.70;;;;;;;2.30;100.00;97956.63;5006448;28;20207;-70
2021/04/07 04:59:05;;;;;;;1.87;1.50;;;;;;;2.33;100.00;97956.34;5009798;28;20214;-72
2021/04/07 05:01:32;;;;;;;3.00;1.60;;;;;;;2.47;100.00;97968.97;5006945;28;20246;-73
2021/04/07 05:04:01;;;;;;;1.83;1.43;;;;;;;2.34;100.00;97971.16;5006724;28;20207;-71
2021/04/07 05:06:27;;;;;;;3.17;1.70;;;;;;;2.37;100.00;97972.66;5003755;28;20714;-72
2021/04/07 05:08:55;;;;;;;3.90;1.50;;;;;;;2.26;100.00;97978.16;5006480;28;20210;-72
2021/04/07 05:11:23;;;;;;;3.13;1.73;;;;;;;2.26;100.00;97976.34;5009452;28;20226;-72
2021/04/07 05:13:50;;;;;;;2.80;1.67;;;;;;;2.61;100.00;97981.63;5011502;28;20257;-72
2021/04/07 05:16:17;;;;;;;3.73;2.00;;;;;;;2.50;100.00;97991.56;5006976;28;20219;-69
2021/04/07 05:18:44;;;;;;;2.93;1.90;;;;;;;2.42;100.00;97987.03;5012822;28;20480;-71
2021/04/07 05:21:10;;;;;;;2.57;1.60;;;;;;;2.29;100.00;97983.94;5007208;28;20235;-70
2021/04/07 05:23:37;;;;;;;3.07;1.30;;;;;;;2.41;100.00;97985.38;5003188;28;20215;-71
2021/04/07 05:26:05;;;;;;;4.93;2.00;;;;;;;2.42;100.00;97994.09;5003539;28;20249;-71
2021/04/07 05:28:32;;;;;;;3.57;1.20;;;;;;;2.48;100.00;97991.69;5006874;28;20209;-72
2021/04/07 05:31:01;;;;;;;3.03;1.60;;;;;;;2.49;100.00;97998.59;5011429;28;20281;-73
2021/04/07 05:33:30;;;;;;;4.37;1.80;;;;;;;2.63;100.00;97998.09;5009955;28;20686;-71
2021/04/07 05:35:58;;;;;;;4.47;2.00;;;;;;;2.63;100.00;98005.16;5007936;28;20227;-71
2021/04/07 05:38:25;;;;;;;3.60;1.97;;;;;;;2.46;100.00;98011.25;5014391;28;20213;-73
2021/04/07 05:40:53;;;;;;;2.03;1.30;;;;;;;2.72;100.00;98004.25;5012105;28;20401;-70
2021/04/07 05:43:21;;;;;;;1.80;1.40;;;;;;;2.46;100.00;98009.47;5005350;28;20208;-70
2021/04/07 05:45:48;;;;;;;3.63;1.98;;;;;;;2.51;100.00;98028.28;5006192;28;20533;-73
2021/04/07 05:48:15;;;;;;;3.07;1.70;;;;;;;2.59;100.00;98032.78;5007836;28;20617;-72
2021/04/07 05:50:43;;;;;;;2.40;1.70;;;;;;;2.50;99.05;98039.75;5003165;28;20211;-72
2021/04/07 05:53:11;;;;;;;4.53;1.50;;;;;;;2.56;100.00;98046.25;5006545;28;20207;-73
2021/04/07 05:55:38;;;;;;;2.87;1.60;;;;;;;2.41;99.30;98053.84;5006867;28;20314;-74
2021/04/07 05:58:06;;;;;;;4.10;1.67;;;;;;;2.45;98.90;98057.81;5004927;28;20215;-71
2021/04/07 06:00:34;;;;;;;4.17;1.37;;;;;;;2.43;98.25;98051.88;5002064;28;20210;-71
2021/04/07 06:03:02;;;;;;;3.63;1.63;;;;;;;2.43;97.88;98066.84;5004366;28;20664;-71
2021/04/07 06:05:29;;;;;;;2.37;1.33;;;;;;;2.39;98.87;98073.41;4997428;28;20682;-71
2021/04/07 06:07:57;;;;;;;2.47;1.40;;;;;;;2.41;100.00;98069.66;5011311;28;20214;-72
2021/04/07 06:10:24;;;;;;;5.70;2.20;;;;;;;2.50;99.24;98076.63;5008851;28;20706;-71
2021/04/07 06:12:51;;;;;;;5.30;2.10;;;;;;;2.31;99.89;98071.53;5009067;28;20315;-71
2021/04/07 06:15:18;;;;;;;10.57;2.40;;;;;;;2.71;97.93;98077.19;5004322;28;20231;-71
2021/04/07 06:17:53;;;;;;;6.17;1.90;;;;;;;2.67;95.70;98089.00;5004087;28;20218;-71
2021/04/07 06:20:20;;;;;;;3.50;1.60;;;;;;;2.81;95.44;98088.50;5010946;28;20203;-71
2021/04/07 06:22:47;;;;;;;1.67;1.37;;;;;;;2.84;93.21;98096.06;5010106;28;20239;-71
2021/04/07 06:25:15;;;;;;;6.53;1.97;;;;;;;3.18;92.82;98097.03;5010506;28;20288;-71
2021/04/07 06:27:41;;;;;;;3.93;1.33;;;;;;;3.21;89.91;98109.91;5006057;28;20246;-71
2021/04/07 06:30:10;;;;;;;3.03;1.03;;;;;;;3.32;87.03;98106.22;5012456;28;20551;-70
2021/04/07 06:32:37;;;;;;;4.57;1.80;;;;;;;3.38;87.43;98118.78;5007263;28;20227;-74
2021/04/07 06:35:06;;;;;;;6.53;1.50;;;;;;;3.36;85.70;98120.75;5011566;28;20284;-72
2021/04/07 06:37:33;;;;;;;2.97;1.50;;;;;;;3.63;84.09;98129.38;5004931;28;20232;-73
2021/04/07 06:40:00;;;;;;;3.93;1.87;;;;;;;3.68;81.25;98140.28;5008771;28;20210;-73
2021/04/07 06:42:27;;;;;;;6.13;1.60;;;;;;;3.50;83.07;98144.75;5004403;28;20235;-72
2021/04/07 06:44:54;;;;;;;4.40;1.40;;;;;;;3.26;84.25;98136.66;5011373;28;20221;-74
2021/04/07 06:47:22;;;;;;;3.80;1.23;;;;;;;3.28;84.75;98137.34;5007562;28;20279;-72
2021/04/07 06:49:50;;;;;;;3.70;0.90;;;;;;;3.72;82.04;98141.59;5011100;28;20203;-70
2021/04/07 06:52:20;;;;;;;11.93;1.60;;;;;;;3.75;83.42;98145.75;5009949;28;20262;-70
2021/04/07 06:54:48;;;;;;;6.47;1.90;;;;;;;3.74;84.11;98147.56;5005673;28;20384;-72
2021/04/07 06:57:16;;;;;;;1.70;1.10;;;;;;;3.84;80.24;98156.22;5010361;28;20215;-71
2021/04/07 06:59:43;;;;;;;4.67;1.33;;;;;;;4.05;80.80;98156.66;5011986;28;20207;-71
2021/04/07 07:02:11;;;;;;;1.83;1.20;;;;;;;3.57;82.82;98155.53;5011217;28;20222;-70
2021/04/07 07:04:38;;;;;;;4.43;1.87;;;;;;;3.77;85.88;98157.00;5003716;28;20257;-71
2021/04/07 07:07:06;;;;;;;4.93;1.27;;;;;;;3.77;81.32;98160.44;5006089;28;20307;-70
2021/04/07 07:09:33;;;;;;;2.57;1.50;;;;;;;3.76;85.00;98165.91;5010809;28;20213;-70
2021/04/07 07:12:01;;;;;;;6.10;1.40;;;;;;;3.86;82.58;98172.72;5004587;28;20353;-71
2021/04/07 07:14:28;;;;;;;6.77;2.10;;;;;;;3.95;82.47;98173.59;5007363;28;20203;-71
2021/04/07 07:16:56;;;;;;;1.27;1.00;;;;;;;3.71;82.99;98174.25;5009032;28;20214;-70
2021/04/07 07:19:24;;;;;;;5.37;1.10;;;;;;;3.66;80.17;98186.28;4998694;28;20213;-69
2021/04/07 07:21:52;;;;;;;3.97;1.20;;;;;;;3.61;83.51;98181.44;5002993;28;20242;-69
2021/04/07 07:24:33;;;;;;;2.90;0.90;;;;;;;3.69;79.46;98186.78;5010343;28;20345;-69
2021/04/07 07:27:01;;;;;;;5.43;1.33;;;;;;;3.76;80.14;98187.81;5007378;28;20207;-70
2021/04/07 07:29:29;;;;;;;2.73;1.20;;;;;;;3.73;82.39;98182.88;5012702;28;20217;-70
2021/04/07 07:32:04;;;;;;;3.87;1.20;;;;;;;3.85;80.50;98180.78;5006742;28;20229;-70
2021/04/07 07:34:31;;;;;;;7.77;1.00;;;;;;;3.67;79.45;98178.19;5005856;28;20651;-70
2021/04/07 07:37:00;;;;;;;4.47;0.93;;;;;;;4.05;79.92;98187.50;5000614;28;20211;-70
2021/04/07 07:39:29;;;;;;;5.47;1.40;;;;;;;4.24;79.59;98192.59;5006451;28;20272;-70
2021/04/07 07:42:01;;;;;;;3.47;0.97;;;;;;;4.34;73.65;98195.94;5002059;28;20707;-69
2021/04/07 07:44:29;;;;;;;1.77;0.87;;;;;;;4.26;74.93;98193.28;4997216;28;20668;-71
2021/04/07 07:47:05;;;;;;;2.30;1.10;;;;;;;4.74;77.89;98201.41;5006553;28;20207;-69
2021/04/07 07:49:32;;;;;;;4.73;1.30;;;;;;;4.46;73.37;98213.16;5009197;28;20199;-77
2021/04/07 07:51:59;;;;;;;4.17;1.20;;;;;;;4.49;79.94;98208.41;5010401;28;20227;-76
2021/04/07 07:54:26;;;;;;;2.07;0.93;;;;;;;4.10;76.63;98238.06;5007513;28;20203;-72
2021/04/07 07:56:54;;;;;;;5.87;0.80;;;;;;;4.27;72.35;98247.75;5009971;28;20210;-74
2021/04/07 07:59:29;;;;;;;2.90;1.00;;;;;;;4.27;73.04;98251.19;5005684;28;20303;-74
2021/04/07 08:01:56;;;;;;;3.27;0.80;;;;;;;3.85;73.58;98244.97;5002933;28;20230;-69
2021/04/07 08:04:24;;;;;;;6.90;1.30;;;;;;;3.96;74.97;98244.72;5007162;28;20214;-69
2021/04/07 08:06:51;;;;;;;1.70;1.03;;;;;;;4.36;75.20;98247.63;5003872;28;20214;-70
2021/04/07 08:09:18;;;;;;;3.80;1.40;;;;;;;4.39;72.58;98251.78;5002394;28;20211;-69
2021/04/07 08:11:46;;;;;;;2.37;1.30;;;;;;;5.00;70.94;98253.22;5005014;28;20235;-69
2021/04/07 08:14:14;;;;;;;6.57;1.00;;;;;;;5.01;69.53;98261.97;5005913;28;20297;-70
2021/04/07 08:16:43;;;;;;;5.57;1.00;;;;;;;4.65;69.46;98256.06;5008550;28;20243;-68
2021/04/07 08:19:11;;;;;;;2.13;1.10;;;;;;;4.95;69.86;98271.41;5001644;28;20293;-69
2021/04/07 08:21:39;;;;;;;2.77;0.90;;;;;;;4.82;71.03;98265.72;5003700;28;20237;-70
2021/04/07 08:24:08;;;;;;;2.47;1.20;;;;;;;4.79;68.78;98268.69;5007127;28;20214;-69
2021/04/07 08:26:37;;;;;;;2.83;1.10;;;;;;;5.05;68.94;98271.25;5007888;28;20218;-69
2021/04/07 08:29:04;;;;;;;2.73;1.10;;;;;;;5.37;68.93;98266.03;5000770;28;20211;-69
2021/04/07 08:31:31;;;;;;;1.20;0.90;;;;;;;5.03;69.00;98268.75;5009381;28;20305;-71
2021/04/07 08:34:02;;;;;;;2.07;1.40;;;;;;;4.81;74.08;98266.69;5003122;28;20673;-71
2021/04/07 08:36:30;;;;;;;1.47;1.00;;;;;;;5.32;74.51;98261.25;4999806;28;20230;-71
2021/04/07 08:39:00;;;;;;;3.23;1.37;;;;;;;4.93;81.03;98257.47;5001203;28;20722;-70
2021/04/07 08:41:28;;;;;;;2.47;1.43;;;;;;;5.22;79.51;98263.22;5008546;28;20600;-72
2021/04/07 08:43:55;;;;;;;3.43;1.13;;;;;;;4.35;77.70;98282.13;5005307;28;20203;-70
2021/04/07 08:46:24;;;;;;;3.30;1.17;;;;;;;4.82;77.32;98278.13;4999095;28;20195;-70
2021/04/07 08:48:52;;;;;;;2.20;1.27;;;;;;;5.36;76.44;98267.88;5008708;28;20246;-71
2021/04/07 08:51:21;;;;;;;2.13;1.13;;;;;;;5.14;71.16;98283.53;4998953;28;20218;-70
2021/04/07 08:53:50;;;;;;;2.80;1.30;;;;;;;5.51;70.82;98282.13;5002269;28;20217;-71
2021/04/07 08:56:22;;;;;;;2.57;0.90;;;;;;;4.85;70.24;98304.22;5005894;28;20266;-71
2021/04/07 08:58:51;;;;;;;2.23;1.10;;;;;;;5.09;71.44;98297.25;5006425;28;20265;-70
2021/04/07 09:01:22;;;;;;;3.70;1.00;;;;;;;5.31;69.08;98306.38;5008035;28;21028;-70
2021/04/07 09:03:49;;;;;;;3.00;1.80;;;;;;;4.67;76.61;98298.19;5003531;28;20210;-71
2021/04/07 09:06:16;;;;;;;1.30;1.07;;;;;;;3.68;80.56;98293.34;5008085;28;20574;-71
2021/04/07 09:08:56;;;;;;;3.10;1.03;;;;;;;4.23;85.33;98289.50;5013404;28;20203;-71
2021/04/07 09:11:43;;;;;;;3.03;1.40;;;;;;;3.75;92.04;98282.97;5013238;28;20226;-73
2021/04/07 09:14:09;;;;;;;4.53;1.60;;;;;;;4.67;92.46;98287.63;5001125;28;20239;-70
2021/04/07 09:16:39;;;;;;;3.23;1.27;;;;;;;4.71;87.58;98292.44;5002535;28;20270;-71
2021/04/07 09:19:14;;;;;;;3.17;1.53;;;;;;;4.26;88.41;98294.47;5013455;28;20261;-71
2021/04/07 09:21:51;;;;;;;3.50;1.33;;;;;;;5.05;86.60;98301.19;5007658;28;20238;-71
2021/04/07 09:24:20;;;;;;;2.83;1.30;;;;;;;4.36;87.10;98294.38;5004113;28;20203;-71
2021/04/07 09:26:48;;;;;;;2.30;1.03;;;;;;;4.56;82.06;98306.38;5010755;28;20678;-71
2021/04/07 09:29:16;;;;;;;2.70;1.43;;;;;;;4.79;79.03;98303.06;5010849;28;20214;-71
2021/04/07 09:31:45;;;;;;;1.40;1.20;;;;;;;4.63;79.66;98295.00;5004279;28;20617;-71
2021/04/07 09:34:14;;;;;;;2.30;1.10;;;;;;;5.30;79.73;98294.16;5007239;28;20236;-71
2021/04/07 09:36:43;;;;;;;4.90;1.30;;;;;;;5.82;78.19;98296.44;4996461;28;20227;-71
2021/04/07 09:39:11;;;;;;;2.53;1.43;;;;;;;5.85;70.90;98304.03;5000367;28;20246;-71
2021/04/07 09:41:42;;;;;;;3.10;1.30;;;;;;;5.78;70.00;98299.56;5018815;28;20219;-69
2021/04/07 09:44:10;;;;;;;2.20;1.10;;;;;;;6.26;67.76;98312.84;5012559;28;20213;-69
2021/04/07 09:46:37;;;;;;;4.77;1.20;;;;;;;5.93;69.78;98304.06;5008673;28;20211;-69
2021/04/07 09:49:06;;;;;;;2.93;1.23;;;;;;;6.39;65.27;98311.34;5010784;28;20200;-71
2021/04/07 09:51:34;;;;;;;3.63;1.30;;;;;;;5.64;64.53;98308.13;5001465;28;20314;-70
2021/04/07 09:54:19;;;;;;;2.87;1.13;;;;;;;6.05;60.88;98304.56;5009219;28;20300;-69
2021/04/07 09:56:48;;;;;;;1.90;1.30;;;;;;;6.36;59.44;98322.28;5012152;28;20354;-69
2021/04/07 09:59:15;;;;;;;1.53;1.00;;;;;;;6.70;58.19;98320.22;5006013;28;20295;-69
2021/04/07 10:01:42;;;;;;;4.63;1.30;;;;;;;6.41;60.83;98319.97;5013323;28;20319;-70
2021/04/07 10:04:09;;;;;;;2.40;1.10;;;;;;;6.81;55.88;98324.38;5008574;28;20215;-73
2021/04/07 10:06:38;;;;;;;2.77;1.07;;;;;;;6.89;55.93;98337.59;5002797;28;20208;-71
2021/04/07 10:09:07;;;;;;;1.30;1.00;;;;;;;6.58;56.73;98332.19;5012117;28;20658;-70
2021/04/07 10:11:37;;;;;;;5.40;1.27;;;;;;;6.54;57.35;98338.00;5012969;28;20228;-70
2021/04/07 10:14:05;;;;;;;3.47;1.40;;;;;;;6.75;58.45;98344.41;5013283;28;20199;-70
2021/04/07 10:16:36;;;;;;;4.37;1.33;;;;;;;6.37;57.21;98345.16;5012705;28;20294;-70
2021/04/07 10:19:06;;;;;;;3.67;1.00;;;;;;;6.60;56.85;98351.41;5013700;28;20667;-70
2021/04/07 10:21:34;;;;;;;2.40;0.97;;;;;;;6.29;60.05;98358.38;5012839;28;20232;-70
2021/04/07 10:24:01;;;;;;;2.93;1.77;;;;;;;6.19;66.44;98341.00;5012997;28;20258;-70
2021/04/07 10:26:28;;;;;;;4.57;1.20;;;;;;;6.07;67.41;98343.16;5014005;28;20210;-70
2021/04/07 10:28:56;;;;;;;4.33;1.33;;;;;;;5.92;68.66;98344.78;5013611;28;20282;-70
2021/04/07 10:31:25;;;;;;;2.10;1.00;;;;;;;5.68;69.80;98336.75;5013185;28;20586;-70
2021/04/07 10:34:03;;;;;;;2.50;1.20;;;;;;;5.82;69.34;98337.97;5013602;28;20203;-70
2021/04/07 10:36:30;;;;;;;5.77;1.40;;;;;;;5.40;68.21;98348.63;5013340;28;20241;-70
2021/04/07 10:38:59;;;;;;;1.40;0.83;;;;;;;5.40;66.74;98361.84;5012840;28;20203;-71
2021/04/07 10:41:26;;;;;;;7.33;1.30;;;;;;;5.50;68.87;98344.00;5013188;28;20226;-70
2021/04/07 10:43:53;;;;;;;3.07;1.30;;;;;;;5.85;65.23;98358.84;5012856;28;20210;-70
2021/04/07 10:46:30;;;;;;;2.67;1.03;;;;;;;5.69;61.83;98346.34;5012386;28;20208;-70
2021/04/07 10:48:58;;;;;;;1.70;1.10;;;;;;;5.98;60.05;98362.66;5005933;28;20203;-73
2021/04/07 10:51:25;;;;;;;2.57;0.80;;;;;;;6.02;58.84;98345.47;5003903;28;20220;-71
2021/04/07 10:53:56;;;;;;;1.20;0.90;;;;;;;6.50;55.08;98345.44;5008628;28;20677;-71
2021/04/07 10:56:25;;;;;;;1.83;1.40;;;;;;;6.40;56.84;98352.75;5010687;28;20223;-71
2021/04/07 10:58:55;;;;;;;2.20;1.20;;;;;;;6.04;57.41;98367.31;5006561;28;20267;-70
2021/04/07 11:01:30;;;;;;;3.53;0.97;;;;;;;7.06;53.63;98357.78;5004495;28;20276;-70
2021/04/07 11:03:57;;;;;;;3.27;0.90;;;;;;;7.32;51.56;98355.72;5006519;28;20953;-71
2021/04/07 11:06:25;;;;;;;0.80;0.67;;;;;;;6.94;49.99;98367.94;5005696;28;20546;-70
2021/04/07 11:08:52;;;;;;;1.67;0.97;;;;;;;6.98;50.30;98374.56;5015472;28;20299;-70
2021/04/07 11:11:24;;;;;;;6.47;1.13;;;;;;;6.91;51.75;98376.22;5018092;28;20227;-71
2021/04/07 11:13:51;;;;;;;3.80;1.00;;;;;;;7.32;49.28;98369.78;5012022;28;20210;-70
2021/04/07 11:16:18;;;;;;;3.43;1.00;;;;;;;6.55;51.14;98374.13;5009790;28;20226;-70
2021/04/07 11:18:49;;;;;;;3.90;1.20;;;;;;;6.39;51.36;98374.13;5012311;28;20209;-69
2021/04/07 11:21:18;;;;;;;2.40;1.20;;;;;;;6.43;52.70;98360.38;5003326;28;20258;-69
2021/04/07 11:23:45;;;;;;;2.93;0.90;;;;;;;6.98;52.39;98357.81;5005603;28;20673;-70
2021/04/07 11:26:12;;;;;;;3.80;1.03;;;;;;;7.65;50.08;98344.75;5005719;28;20207;-70
2021/04/07 11:28:39;;;;;;;5.73;1.00;;;;;;;7.35;49.12;98350.88;5006286;28;20213;-71
2021/04/07 11:31:08;;;;;;;1.90;1.10;;;;;;;7.57;47.84;98360.72;5004935;28;20232;-71
2021/04/07 11:33:39;;;;;;;3.23;1.10;;;;;;;7.65;47.39;98363.34;5000010;28;20292;-71
2021/04/07 11:36:16;;;;;;;3.77;0.90;;;;;;;7.36;47.43;98372.97;5001925;28;20274;-70
2021/04/07 11:38:49;;;;;;;1.57;0.90;;;;;;;7.05;45.91;98370.22;5004974;28;20206;-69
2021/04/07 11:47:02;;;;;;;3.60;1.03;;;;;;;8.28;41.16;98389.75;4965575;28;20235;-70